sensor_id;sensor_type;location;lat;lon;timestamp;P1;durP1;ratioP1;P2;durP2;ratioP2
40983;SDS011;26714;51.332;12.406;2023-07-13T00:01:26;3.13;;;1.40;;
40983;SDS011;26714;51.332;12.406;2023-07-13T00:03:52;3.17;;;1.20;;
40983;SDS011;26714;51.332;12.406;2023-07-13T00:06:18;2.58;;;1.08;;
40983;SDS011;26714;51.332;12.406;2023-07-13T00:08:45;2.58;;;1.15;;
40983;SDS011;26714;51.332;12.406;2023-07-13T00:11:10;2.35;;;1.23;;
40983;SDS011;26714;51.332;12.406;2023-07-13T00:13:36;6.40;;;1.50;;
40983;SDS011;26714;51.332;12.406;2023-07-13T00:16:03;2.47;;;1.02;;
40983;SDS011;26714;51.332;12.406;2023-07-13T00:18:29;2.95;;;1.30;;
40983;SDS011;26714;51.332;12.406;2023-07-13T00:20:55;3.67;;;1.35;;
40983;SDS011;26714;51.332;12.406;2023-07-13T00:23:21;3.17;;;1.20;;
40983;SDS011;26714;51.332;12.406;2023-07-13T00:25:47;5.18;;;1.65;;
40983;SDS011;26714;51.332;12.406;2023-07-13T00:28:12;2.58;;;1.00;;
40983;SDS011;26714;51.332;12.406;2023-07-13T00:30:38;4.00;;;1.40;;
40983;SDS011;26714;51.332;12.406;2023-07-13T00:33:04;2.80;;;1.27;;
40983;SDS011;26714;51.332;12.406;2023-07-13T00:35:30;6.07;;;1.70;;
40983;SDS011;26714;51.332;12.406;2023-07-13T00:37:56;2.78;;;1.20;;
40983;SDS011;26714;51.332;12.406;2023-07-13T00:40:23;3.42;;;1.15;;
40983;SDS011;26714;51.332;12.406;2023-07-13T00:42:48;4.55;;;1.40;;
40983;SDS011;26714;51.332;12.406;2023-07-13T00:47:43;2.47;;;1.35;;
40983;SDS011;26714;51.332;12.406;2023-07-13T00:50:10;6.13;;;1.30;;
40983;SDS011;26714;51.332;12.406;2023-07-13T00:52:38;3.85;;;1.45;;
40983;SDS011;26714;51.332;12.406;2023-07-13T00:55:06;3.28;;;1.65;;
40983;SDS011;26714;51.332;12.406;2023-07-13T00:57:32;4.53;;;1.42;;
40983;SDS011;26714;51.332;12.406;2023-07-13T00:59:59;5.43;;;1.40;;
40983;SDS011;26714;51.332;12.406;2023-07-13T01:02:25;6.22;;;1.38;;
40983;SDS011;26714;51.332;12.406;2023-07-13T01:04:51;6.47;;;1.30;;
40983;SDS011;26714;51.332;12.406;2023-07-13T01:07:17;3.38;;;1.30;;
40983;SDS011;26714;51.332;12.406;2023-07-13T01:09:44;3.42;;;1.33;;
40983;SDS011;26714;51.332;12.406;2023-07-13T01:12:11;4.00;;;1.30;;
40983;SDS011;26714;51.332;12.406;2023-07-13T01:14:36;4.63;;;2.40;;
40983;SDS011;26714;51.332;12.406;2023-07-13T01:17:02;6.15;;;1.75;;
40983;SDS011;26714;51.332;12.406;2023-07-13T01:19:39;9.73;;;2.22;;
40983;SDS011;26714;51.332;12.406;2023-07-13T01:22:15;4.50;;;1.48;;
40983;SDS011;26714;51.332;12.406;2023-07-13T01:24:42;4.25;;;1.20;;
40983;SDS011;26714;51.332;12.406;2023-07-13T01:27:08;3.28;;;1.20;;
40983;SDS011;26714;51.332;12.406;2023-07-13T01:29:35;4.82;;;1.45;;
40983;SDS011;26714;51.332;12.406;2023-07-13T01:32:11;5.20;;;1.40;;
40983;SDS011;26714;51.332;12.406;2023-07-13T01:34:37;6.63;;;1.90;;
40983;SDS011;26714;51.332;12.406;2023-07-13T01:37:04;3.45;;;1.63;;
40983;SDS011;26714;51.332;12.406;2023-07-13T01:39:30;4.53;;;1.55;;
40983;SDS011;26714;51.332;12.406;2023-07-13T01:41:55;4.25;;;1.30;;
40983;SDS011;26714;51.332;12.406;2023-07-13T01:44:21;3.00;;;1.08;;
40983;SDS011;26714;51.332;12.406;2023-07-13T01:46:47;6.13;;;1.27;;
40983;SDS011;26714;51.332;12.406;2023-07-13T01:49:14;5.70;;;1.08;;
40983;SDS011;26714;51.332;12.406;2023-07-13T01:51:39;4.28;;;1.30;;
40983;SDS011;26714;51.332;12.406;2023-07-13T01:54:05;3.60;;;1.10;;
40983;SDS011;26714;51.332;12.406;2023-07-13T01:56:31;4.50;;;1.33;;
40983;SDS011;26714;51.332;12.406;2023-07-13T01:58:56;4.43;;;1.30;;
40983;SDS011;26714;51.332;12.406;2023-07-13T02:01:22;5.55;;;2.05;;
40983;SDS011;26714;51.332;12.406;2023-07-13T02:03:47;6.57;;;1.20;;
40983;SDS011;26714;51.332;12.406;2023-07-13T02:06:13;4.28;;;1.48;;
40983;SDS011;26714;51.332;12.406;2023-07-13T02:08:39;4.35;;;1.25;;
40983;SDS011;26714;51.332;12.406;2023-07-13T02:11:05;3.88;;;1.30;;
40983;SDS011;26714;51.332;12.406;2023-07-13T02:13:31;6.47;;;1.50;;
40983;SDS011;26714;51.332;12.406;2023-07-13T02:15:56;4.45;;;1.42;;
40983;SDS011;26714;51.332;12.406;2023-07-13T02:18:22;4.65;;;1.30;;
40983;SDS011;26714;51.332;12.406;2023-07-13T02:20:48;2.83;;;1.20;;
40983;SDS011;26714;51.332;12.406;2023-07-13T02:23:13;3.75;;;1.25;;
40983;SDS011;26714;51.332;12.406;2023-07-13T02:25:39;4.90;;;1.33;;
40983;SDS011;26714;51.332;12.406;2023-07-13T02:28:05;5.18;;;1.63;;
40983;SDS011;26714;51.332;12.406;2023-07-13T02:30:30;4.63;;;1.33;;
40983;SDS011;26714;51.332;12.406;2023-07-13T02:32:57;4.13;;;1.20;;
40983;SDS011;26714;51.332;12.406;2023-07-13T02:35:23;4.30;;;1.30;;
40983;SDS011;26714;51.332;12.406;2023-07-13T02:37:48;4.28;;;1.38;;
40983;SDS011;26714;51.332;12.406;2023-07-13T02:40:14;3.47;;;1.38;;
40983;SDS011;26714;51.332;12.406;2023-07-13T02:42:40;3.42;;;1.27;;
40983;SDS011;26714;51.332;12.406;2023-07-13T02:45:06;9.23;;;2.97;;
40983;SDS011;26714;51.332;12.406;2023-07-13T02:49:59;5.43;;;1.63;;
40983;SDS011;26714;51.332;12.406;2023-07-13T02:52:25;5.85;;;1.48;;
40983;SDS011;26714;51.332;12.406;2023-07-13T02:54:50;5.38;;;2.20;;
40983;SDS011;26714;51.332;12.406;2023-07-13T02:57:16;7.07;;;1.90;;
40983;SDS011;26714;51.332;12.406;2023-07-13T03:02:33;4.05;;;1.65;;
40983;SDS011;26714;51.332;12.406;2023-07-13T03:04:59;7.97;;;1.83;;
40983;SDS011;26714;51.332;12.406;2023-07-13T03:07:25;10.13;;;1.92;;
40983;SDS011;26714;51.332;12.406;2023-07-13T03:09:56;5.55;;;1.58;;
40983;SDS011;26714;51.332;12.406;2023-07-13T03:12:24;6.20;;;1.77;;
40983;SDS011;26714;51.332;12.406;2023-07-13T03:14:50;6.22;;;1.80;;
40983;SDS011;26714;51.332;12.406;2023-07-13T03:17:16;5.75;;;1.48;;
40983;SDS011;26714;51.332;12.406;2023-07-13T03:19:42;4.63;;;1.48;;
40983;SDS011;26714;51.332;12.406;2023-07-13T03:22:09;5.80;;;1.30;;
40983;SDS011;26714;51.332;12.406;2023-07-13T03:24:36;6.97;;;1.50;;
40983;SDS011;26714;51.332;12.406;2023-07-13T03:27:04;4.72;;;1.42;;
40983;SDS011;26714;51.332;12.406;2023-07-13T03:29:32;5.50;;;1.60;;
40983;SDS011;26714;51.332;12.406;2023-07-13T03:31:57;4.43;;;1.70;;
40983;SDS011;26714;51.332;12.406;2023-07-13T03:34:23;9.07;;;1.63;;
40983;SDS011;26714;51.332;12.406;2023-07-13T03:36:49;6.22;;;1.83;;
40983;SDS011;26714;51.332;12.406;2023-07-13T03:39:15;7.07;;;1.80;;
40983;SDS011;26714;51.332;12.406;2023-07-13T03:41:45;9.30;;;3.88;;
40983;SDS011;26714;51.332;12.406;2023-07-13T03:44:12;7.88;;;2.28;;
40983;SDS011;26714;51.332;12.406;2023-07-13T03:46:37;5.47;;;2.15;;
40983;SDS011;26714;51.332;12.406;2023-07-13T03:49:04;6.13;;;2.13;;
40983;SDS011;26714;51.332;12.406;2023-07-13T03:51:30;7.13;;;1.83;;
40983;SDS011;26714;51.332;12.406;2023-07-13T03:53:55;7.88;;;1.73;;
40983;SDS011;26714;51.332;12.406;2023-07-13T03:56:21;7.60;;;1.83;;
40983;SDS011;26714;51.332;12.406;2023-07-13T03:58:48;7.38;;;1.73;;
40983;SDS011;26714;51.332;12.406;2023-07-13T04:01:17;8.02;;;1.75;;
40983;SDS011;26714;51.332;12.406;2023-07-13T04:03:43;8.40;;;1.80;;
40983;SDS011;26714;51.332;12.406;2023-07-13T04:06:13;7.40;;;1.60;;
40983;SDS011;26714;51.332;12.406;2023-07-13T04:08:40;4.30;;;1.60;;
40983;SDS011;26714;51.332;12.406;2023-07-13T04:11:06;6.05;;;1.90;;
40983;SDS011;26714;51.332;12.406;2023-07-13T04:13:32;6.13;;;1.98;;
40983;SDS011;26714;51.332;12.406;2023-07-13T04:15:57;2.88;;;1.50;;
40983;SDS011;26714;51.332;12.406;2023-07-13T04:18:23;5.00;;;1.63;;
40983;SDS011;26714;51.332;12.406;2023-07-13T04:20:49;4.32;;;1.50;;
40983;SDS011;26714;51.332;12.406;2023-07-13T04:23:15;9.02;;;1.83;;
40983;SDS011;26714;51.332;12.406;2023-07-13T04:25:43;7.30;;;1.77;;
40983;SDS011;26714;51.332;12.406;2023-07-13T04:28:09;8.38;;;2.03;;
40983;SDS011;26714;51.332;12.406;2023-07-13T04:30:34;7.38;;;1.92;;
40983;SDS011;26714;51.332;12.406;2023-07-13T04:33:00;5.03;;;1.98;;
40983;SDS011;26714;51.332;12.406;2023-07-13T04:35:25;6.03;;;2.00;;
40983;SDS011;26714;51.332;12.406;2023-07-13T04:37:51;7.70;;;2.78;;
40983;SDS011;26714;51.332;12.406;2023-07-13T04:40:17;5.45;;;2.15;;
40983;SDS011;26714;51.332;12.406;2023-07-13T04:42:43;3.97;;;1.80;;
40983;SDS011;26714;51.332;12.406;2023-07-13T04:45:09;4.60;;;1.70;;
40983;SDS011;26714;51.332;12.406;2023-07-13T04:47:34;6.07;;;1.98;;
40983;SDS011;26714;51.332;12.406;2023-07-13T04:50:00;6.05;;;1.80;;
40983;SDS011;26714;51.332;12.406;2023-07-13T04:52:25;9.00;;;2.10;;
40983;SDS011;26714;51.332;12.406;2023-07-13T04:54:51;5.35;;;2.10;;
40983;SDS011;26714;51.332;12.406;2023-07-13T04:57:17;6.30;;;2.25;;
40983;SDS011;26714;51.332;12.406;2023-07-13T04:59:42;10.00;;;3.00;;
40983;SDS011;26714;51.332;12.406;2023-07-13T05:02:08;7.93;;;3.08;;
40983;SDS011;26714;51.332;12.406;2023-07-13T05:04:33;7.57;;;2.30;;
40983;SDS011;26714;51.332;12.406;2023-07-13T05:06:59;5.18;;;1.70;;
40983;SDS011;26714;51.332;12.406;2023-07-13T05:09:25;8.27;;;2.45;;
40983;SDS011;26714;51.332;12.406;2023-07-13T05:11:50;4.40;;;1.83;;
40983;SDS011;26714;51.332;12.406;2023-07-13T05:14:16;11.40;;;2.33;;
40983;SDS011;26714;51.332;12.406;2023-07-13T05:16:42;6.28;;;2.00;;
40983;SDS011;26714;51.332;12.406;2023-07-13T05:19:07;7.88;;;2.30;;
40983;SDS011;26714;51.332;12.406;2023-07-13T05:21:33;7.10;;;2.67;;
40983;SDS011;26714;51.332;12.406;2023-07-13T05:23:59;4.47;;;1.90;;
40983;SDS011;26714;51.332;12.406;2023-07-13T05:26:24;6.40;;;2.90;;
40983;SDS011;26714;51.332;12.406;2023-07-13T05:28:50;6.25;;;2.05;;
40983;SDS011;26714;51.332;12.406;2023-07-13T05:31:15;9.15;;;2.08;;
40983;SDS011;26714;51.332;12.406;2023-07-13T05:33:41;12.63;;;3.35;;
40983;SDS011;26714;51.332;12.406;2023-07-13T05:36:06;7.35;;;2.28;;
40983;SDS011;26714;51.332;12.406;2023-07-13T05:38:32;7.65;;;2.30;;
40983;SDS011;26714;51.332;12.406;2023-07-13T05:40:58;5.15;;;1.70;;
40983;SDS011;26714;51.332;12.406;2023-07-13T05:43:24;8.57;;;2.65;;
40983;SDS011;26714;51.332;12.406;2023-07-13T05:45:51;10.70;;;4.05;;
40983;SDS011;26714;51.332;12.406;2023-07-13T05:48:16;4.72;;;1.75;;
40983;SDS011;26714;51.332;12.406;2023-07-13T05:50:42;6.63;;;1.50;;
40983;SDS011;26714;51.332;12.406;2023-07-13T05:53:07;5.85;;;2.13;;
40983;SDS011;26714;51.332;12.406;2023-07-13T05:55:33;3.42;;;1.45;;
40983;SDS011;26714;51.332;12.406;2023-07-13T05:57:59;4.88;;;1.50;;
40983;SDS011;26714;51.332;12.406;2023-07-13T06:00:25;3.30;;;1.63;;
40983;SDS011;26714;51.332;12.406;2023-07-13T06:02:50;7.75;;;1.92;;
40983;SDS011;26714;51.332;12.406;2023-07-13T06:05:16;4.85;;;1.50;;
40983;SDS011;26714;51.332;12.406;2023-07-13T06:07:42;5.47;;;1.80;;
40983;SDS011;26714;51.332;12.406;2023-07-13T06:10:08;5.47;;;1.50;;
40983;SDS011;26714;51.332;12.406;2023-07-13T06:12:34;7.13;;;2.22;;
40983;SDS011;26714;51.332;12.406;2023-07-13T06:14:59;4.63;;;1.30;;
40983;SDS011;26714;51.332;12.406;2023-07-13T06:17:24;8.85;;;1.58;;
40983;SDS011;26714;51.332;12.406;2023-07-13T06:19:50;6.38;;;1.80;;
40983;SDS011;26714;51.332;12.406;2023-07-13T06:22:15;9.07;;;1.60;;
40983;SDS011;26714;51.332;12.406;2023-07-13T06:24:41;5.60;;;1.45;;
40983;SDS011;26714;51.332;12.406;2023-07-13T06:27:06;7.65;;;1.52;;
40983;SDS011;26714;51.332;12.406;2023-07-13T06:29:32;5.57;;;1.90;;
40983;SDS011;26714;51.332;12.406;2023-07-13T06:31:57;5.35;;;1.25;;
40983;SDS011;26714;51.332;12.406;2023-07-13T06:34:23;6.25;;;1.50;;
40983;SDS011;26714;51.332;12.406;2023-07-13T06:36:48;4.95;;;1.50;;
40983;SDS011;26714;51.332;12.406;2023-07-13T06:39:14;5.45;;;1.50;;
40983;SDS011;26714;51.332;12.406;2023-07-13T06:41:40;7.65;;;2.28;;
40983;SDS011;26714;51.332;12.406;2023-07-13T06:44:09;10.60;;;3.50;;
40983;SDS011;26714;51.332;12.406;2023-07-13T06:46:35;6.60;;;2.58;;
40983;SDS011;26714;51.332;12.406;2023-07-13T06:49:00;7.30;;;1.73;;
40983;SDS011;26714;51.332;12.406;2023-07-13T06:51:26;7.40;;;1.75;;
40983;SDS011;26714;51.332;12.406;2023-07-13T06:53:52;9.38;;;3.47;;
40983;SDS011;26714;51.332;12.406;2023-07-13T06:56:17;6.43;;;2.13;;
40983;SDS011;26714;51.332;12.406;2023-07-13T06:58:43;12.75;;;4.20;;
40983;SDS011;26714;51.332;12.406;2023-07-13T07:01:08;9.60;;;3.78;;
40983;SDS011;26714;51.332;12.406;2023-07-13T07:03:34;8.50;;;1.65;;
40983;SDS011;26714;51.332;12.406;2023-07-13T07:06:00;7.28;;;3.08;;
40983;SDS011;26714;51.332;12.406;2023-07-13T07:08:26;7.15;;;2.08;;
40983;SDS011;26714;51.332;12.406;2023-07-13T07:10:51;9.50;;;2.97;;
40983;SDS011;26714;51.332;12.406;2023-07-13T07:13:19;6.63;;;1.92;;
40983;SDS011;26714;51.332;12.406;2023-07-13T07:15:45;9.77;;;3.10;;
40983;SDS011;26714;51.332;12.406;2023-07-13T07:18:10;5.85;;;2.20;;
40983;SDS011;26714;51.332;12.406;2023-07-13T07:20:36;4.60;;;1.40;;
40983;SDS011;26714;51.332;12.406;2023-07-13T07:23:02;7.63;;;2.05;;
40983;SDS011;26714;51.332;12.406;2023-07-13T07:25:27;8.25;;;2.90;;
40983;SDS011;26714;51.332;12.406;2023-07-13T07:27:57;7.10;;;1.88;;
40983;SDS011;26714;51.332;12.406;2023-07-13T07:30:23;9.43;;;1.70;;
40983;SDS011;26714;51.332;12.406;2023-07-13T07:32:49;6.53;;;1.40;;
40983;SDS011;26714;51.332;12.406;2023-07-13T07:35:14;5.22;;;1.50;;
40983;SDS011;26714;51.332;12.406;2023-07-13T07:37:40;11.75;;;1.92;;
40983;SDS011;26714;51.332;12.406;2023-07-13T07:40:06;6.78;;;1.38;;
40983;SDS011;26714;51.332;12.406;2023-07-13T07:42:32;6.40;;;1.30;;
40983;SDS011;26714;51.332;12.406;2023-07-13T07:44:57;8.68;;;1.60;;
40983;SDS011;26714;51.332;12.406;2023-07-13T07:47:23;5.07;;;1.70;;
40983;SDS011;26714;51.332;12.406;2023-07-13T07:49:49;8.45;;;1.70;;
40983;SDS011;26714;51.332;12.406;2023-07-13T07:52:15;5.57;;;1.55;;
40983;SDS011;26714;51.332;12.406;2023-07-13T07:54:40;4.28;;;1.08;;
40983;SDS011;26714;51.332;12.406;2023-07-13T07:57:06;6.45;;;1.70;;
40983;SDS011;26714;51.332;12.406;2023-07-13T07:59:31;5.88;;;1.58;;
40983;SDS011;26714;51.332;12.406;2023-07-13T08:01:57;3.13;;;1.50;;
40983;SDS011;26714;51.332;12.406;2023-07-13T08:04:23;5.88;;;2.03;;
40983;SDS011;26714;51.332;12.406;2023-07-13T08:06:48;7.28;;;1.63;;
40983;SDS011;26714;51.332;12.406;2023-07-13T08:09:14;5.13;;;1.50;;
40983;SDS011;26714;51.332;12.406;2023-07-13T08:11:42;4.38;;;1.42;;
40983;SDS011;26714;51.332;12.406;2023-07-13T08:14:08;5.93;;;1.30;;
40983;SDS011;26714;51.332;12.406;2023-07-13T08:16:34;4.53;;;1.40;;
40983;SDS011;26714;51.332;12.406;2023-07-13T08:19:00;4.32;;;1.50;;
40983;SDS011;26714;51.332;12.406;2023-07-13T08:21:25;8.05;;;1.88;;
40983;SDS011;26714;51.332;12.406;2023-07-13T08:23:51;8.48;;;1.70;;
40983;SDS011;26714;51.332;12.406;2023-07-13T08:26:16;6.88;;;1.20;;
40983;SDS011;26714;51.332;12.406;2023-07-13T08:28:42;8.27;;;1.30;;
40983;SDS011;26714;51.332;12.406;2023-07-13T08:31:08;9.90;;;1.50;;
40983;SDS011;26714;51.332;12.406;2023-07-13T08:33:35;7.68;;;1.73;;
40983;SDS011;26714;51.332;12.406;2023-07-13T08:36:01;6.95;;;2.17;;
40983;SDS011;26714;51.332;12.406;2023-07-13T08:38:26;8.00;;;1.75;;
40983;SDS011;26714;51.332;12.406;2023-07-13T08:40:53;4.97;;;1.42;;
40983;SDS011;26714;51.332;12.406;2023-07-13T08:43:22;6.90;;;1.60;;
40983;SDS011;26714;51.332;12.406;2023-07-13T08:45:51;5.38;;;1.38;;
40983;SDS011;26714;51.332;12.406;2023-07-13T08:48:24;8.77;;;1.88;;
40983;SDS011;26714;51.332;12.406;2023-07-13T08:51:13;6.00;;;1.27;;
40983;SDS011;26714;51.332;12.406;2023-07-13T08:53:45;11.90;;;1.83;;
40983;SDS011;26714;51.332;12.406;2023-07-13T08:56:32;6.00;;;1.50;;
40983;SDS011;26714;51.332;12.406;2023-07-13T08:58:59;4.32;;;1.35;;
40983;SDS011;26714;51.332;12.406;2023-07-13T09:04:17;8.75;;;1.33;;
40983;SDS011;26714;51.332;12.406;2023-07-13T09:12:07;4.75;;;1.23;;
40983;SDS011;26714;51.332;12.406;2023-07-13T09:14:45;6.47;;;1.25;;
40983;SDS011;26714;51.332;12.406;2023-07-13T09:17:17;6.43;;;1.20;;
40983;SDS011;26714;51.332;12.406;2023-07-13T09:19:43;6.03;;;1.30;;
40983;SDS011;26714;51.332;12.406;2023-07-13T09:22:13;6.22;;;1.42;;
40983;SDS011;26714;51.332;12.406;2023-07-13T09:24:47;3.47;;;1.30;;
40983;SDS011;26714;51.332;12.406;2023-07-13T09:27:17;3.97;;;1.17;;
40983;SDS011;26714;51.332;12.406;2023-07-13T09:29:45;12.45;;;1.80;;
40983;SDS011;26714;51.332;12.406;2023-07-13T09:32:12;5.45;;;1.30;;
40983;SDS011;26714;51.332;12.406;2023-07-13T09:34:40;2.65;;;1.02;;
40983;SDS011;26714;51.332;12.406;2023-07-13T09:37:05;5.93;;;1.73;;
40983;SDS011;26714;51.332;12.406;2023-07-13T09:39:39;3.92;;;1.30;;
40983;SDS011;26714;51.332;12.406;2023-07-13T09:42:07;6.18;;;1.58;;
40983;SDS011;26714;51.332;12.406;2023-07-13T09:44:38;5.85;;;1.23;;
40983;SDS011;26714;51.332;12.406;2023-07-13T09:47:24;6.28;;;1.38;;
40983;SDS011;26714;51.332;12.406;2023-07-13T09:49:59;5.17;;;1.63;;
40983;SDS011;26714;51.332;12.406;2023-07-13T09:52:25;5.50;;;1.25;;
40983;SDS011;26714;51.332;12.406;2023-07-13T09:54:53;7.75;;;1.42;;
40983;SDS011;26714;51.332;12.406;2023-07-13T09:57:24;6.53;;;1.15;;
40983;SDS011;26714;51.332;12.406;2023-07-13T09:59:52;4.57;;;1.30;;
40983;SDS011;26714;51.332;12.406;2023-07-13T10:02:25;6.93;;;1.20;;
40983;SDS011;26714;51.332;12.406;2023-07-13T10:05:04;5.15;;;1.40;;
40983;SDS011;26714;51.332;12.406;2023-07-13T10:07:30;7.95;;;1.50;;
40983;SDS011;26714;51.332;12.406;2023-07-13T10:09:57;5.63;;;1.20;;
40983;SDS011;26714;51.332;12.406;2023-07-13T10:12:24;6.43;;;2.03;;
40983;SDS011;26714;51.332;12.406;2023-07-13T10:14:56;5.68;;;1.65;;
40983;SDS011;26714;51.332;12.406;2023-07-13T10:17:26;4.40;;;1.20;;
40983;SDS011;26714;51.332;12.406;2023-07-13T10:19:57;8.15;;;1.75;;
40983;SDS011;26714;51.332;12.406;2023-07-13T10:22:27;4.60;;;1.50;;
40983;SDS011;26714;51.332;12.406;2023-07-13T10:24:54;6.85;;;1.27;;
40983;SDS011;26714;51.332;12.406;2023-07-13T10:27:21;7.30;;;1.42;;
40983;SDS011;26714;51.332;12.406;2023-07-13T10:32:23;7.00;;;1.40;;
40983;SDS011;26714;51.332;12.406;2023-07-13T10:34:49;5.43;;;1.05;;
40983;SDS011;26714;51.332;12.406;2023-07-13T10:37:26;5.63;;;1.27;;
40983;SDS011;26714;51.332;12.406;2023-07-13T10:39:53;4.82;;;1.17;;
40983;SDS011;26714;51.332;12.406;2023-07-13T10:42:25;2.80;;;1.15;;
40983;SDS011;26714;51.332;12.406;2023-07-13T10:44:52;3.10;;;1.10;;
40983;SDS011;26714;51.332;12.406;2023-07-13T10:47:17;7.28;;;1.80;;
40983;SDS011;26714;51.332;12.406;2023-07-13T10:49:43;5.07;;;1.20;;
40983;SDS011;26714;51.332;12.406;2023-07-13T10:54:54;5.38;;;1.30;;
40983;SDS011;26714;51.332;12.406;2023-07-13T10:57:20;8.43;;;1.73;;
40983;SDS011;26714;51.332;12.406;2023-07-13T11:00:13;5.30;;;1.20;;
40983;SDS011;26714;51.332;12.406;2023-07-13T11:02:33;6.13;;;1.20;;
40983;SDS011;26714;51.332;12.406;2023-07-13T11:04:59;4.43;;;1.33;;
40983;SDS011;26714;51.332;12.406;2023-07-13T11:07:51;7.35;;;1.10;;
40983;SDS011;26714;51.332;12.406;2023-07-13T11:10:45;3.10;;;1.10;;
40983;SDS011;26714;51.332;12.406;2023-07-13T11:13:27;3.58;;;1.00;;
40983;SDS011;26714;51.332;12.406;2023-07-13T11:15:50;4.72;;;0.90;;
40983;SDS011;26714;51.332;12.406;2023-07-13T11:18:20;3.15;;;1.00;;
40983;SDS011;26714;51.332;12.406;2023-07-13T11:20:46;5.20;;;1.17;;
40983;SDS011;26714;51.332;12.406;2023-07-13T11:25:41;5.70;;;1.13;;
40983;SDS011;26714;51.332;12.406;2023-07-13T11:33:20;7.68;;;1.77;;
40983;SDS011;26714;51.332;12.406;2023-07-13T11:36:04;2.95;;;0.90;;
40983;SDS011;26714;51.332;12.406;2023-07-13T11:41:00;3.90;;;1.08;;
40983;SDS011;26714;51.332;12.406;2023-07-13T11:43:28;3.95;;;1.20;;
40983;SDS011;26714;51.332;12.406;2023-07-13T11:45:54;3.22;;;1.00;;
40983;SDS011;26714;51.332;12.406;2023-07-13T11:48:21;7.22;;;1.30;;
40983;SDS011;26714;51.332;12.406;2023-07-13T11:51:05;4.00;;;1.10;;
40983;SDS011;26714;51.332;12.406;2023-07-13T11:53:36;2.30;;;0.93;;
40983;SDS011;26714;51.332;12.406;2023-07-13T11:56:03;2.92;;;1.00;;
40983;SDS011;26714;51.332;12.406;2023-07-13T11:58:29;3.45;;;1.10;;
40983;SDS011;26714;51.332;12.406;2023-07-13T12:00:55;3.83;;;1.00;;
40983;SDS011;26714;51.332;12.406;2023-07-13T12:03:23;7.75;;;1.13;;
40983;SDS011;26714;51.332;12.406;2023-07-13T12:06:03;4.15;;;1.10;;
40983;SDS011;26714;51.332;12.406;2023-07-13T12:08:31;6.45;;;0.98;;
40983;SDS011;26714;51.332;12.406;2023-07-13T12:11:02;4.45;;;0.98;;
40983;SDS011;26714;51.332;12.406;2023-07-13T12:13:34;3.83;;;0.98;;
40983;SDS011;26714;51.332;12.406;2023-07-13T12:16:00;4.03;;;1.35;;
40983;SDS011;26714;51.332;12.406;2023-07-13T12:18:28;9.23;;;1.20;;
40983;SDS011;26714;51.332;12.406;2023-07-13T12:20:55;6.90;;;1.35;;
40983;SDS011;26714;51.332;12.406;2023-07-13T12:23:23;3.57;;;0.90;;
40983;SDS011;26714;51.332;12.406;2023-07-13T12:30:48;3.28;;;1.88;;
40983;SDS011;26714;51.332;12.406;2023-07-13T12:33:14;3.70;;;0.98;;
40983;SDS011;26714;51.332;12.406;2023-07-13T12:35:40;4.47;;;0.80;;
40983;SDS011;26714;51.332;12.406;2023-07-13T12:38:09;3.90;;;1.00;;
40983;SDS011;26714;51.332;12.406;2023-07-13T12:40:36;4.47;;;1.00;;
40983;SDS011;26714;51.332;12.406;2023-07-13T12:43:02;1.63;;;0.65;;
40983;SDS011;26714;51.332;12.406;2023-07-13T12:45:30;2.65;;;1.08;;
40983;SDS011;26714;51.332;12.406;2023-07-13T12:48:02;3.20;;;0.93;;
40983;SDS011;26714;51.332;12.406;2023-07-13T12:50:37;2.30;;;0.80;;
40983;SDS011;26714;51.332;12.406;2023-07-13T12:53:04;3.75;;;0.90;;
40983;SDS011;26714;51.332;12.406;2023-07-13T12:55:40;6.72;;;0.88;;
40983;SDS011;26714;51.332;12.406;2023-07-13T12:58:06;2.75;;;0.70;;
40983;SDS011;26714;51.332;12.406;2023-07-13T13:00:36;1.95;;;0.90;;
40983;SDS011;26714;51.332;12.406;2023-07-13T13:03:21;4.97;;;1.30;;
40983;SDS011;26714;51.332;12.406;2023-07-13T13:05:47;3.45;;;1.10;;
40983;SDS011;26714;51.332;12.406;2023-07-13T13:08:13;3.10;;;1.20;;
40983;SDS011;26714;51.332;12.406;2023-07-13T13:10:42;2.50;;;0.80;;
40983;SDS011;26714;51.332;12.406;2023-07-13T13:13:08;4.63;;;1.10;;
40983;SDS011;26714;51.332;12.406;2023-07-13T13:15:33;3.70;;;0.90;;
40983;SDS011;26714;51.332;12.406;2023-07-13T13:17:59;3.53;;;1.00;;
40983;SDS011;26714;51.332;12.406;2023-07-13T13:20:25;2.72;;;0.82;;
40983;SDS011;26714;51.332;12.406;2023-07-13T13:22:53;3.50;;;0.80;;
40983;SDS011;26714;51.332;12.406;2023-07-13T13:25:19;4.82;;;0.88;;
40983;SDS011;26714;51.332;12.406;2023-07-13T13:27:45;2.30;;;0.80;;
40983;SDS011;26714;51.332;12.406;2023-07-13T13:30:15;4.80;;;1.05;;
40983;SDS011;26714;51.332;12.406;2023-07-13T13:32:44;3.03;;;0.80;;
40983;SDS011;26714;51.332;12.406;2023-07-13T13:35:17;7.90;;;1.13;;
40983;SDS011;26714;51.332;12.406;2023-07-13T13:37:43;5.18;;;1.10;;
40983;SDS011;26714;51.332;12.406;2023-07-13T13:40:16;2.80;;;0.98;;
40983;SDS011;26714;51.332;12.406;2023-07-13T13:42:41;5.00;;;1.35;;
40983;SDS011;26714;51.332;12.406;2023-07-13T13:45:09;2.70;;;1.10;;
40983;SDS011;26714;51.332;12.406;2023-07-13T13:47:34;5.85;;;1.00;;
40983;SDS011;26714;51.332;12.406;2023-07-13T13:50:01;4.05;;;0.90;;
40983;SDS011;26714;51.332;12.406;2023-07-13T13:52:28;4.53;;;1.00;;
40983;SDS011;26714;51.332;12.406;2023-07-13T13:54:53;3.25;;;0.90;;
40983;SDS011;26714;51.332;12.406;2023-07-13T13:57:22;5.78;;;1.15;;
40983;SDS011;26714;51.332;12.406;2023-07-13T13:59:48;6.07;;;1.58;;
40983;SDS011;26714;51.332;12.406;2023-07-13T14:02:21;5.95;;;1.30;;
40983;SDS011;26714;51.332;12.406;2023-07-13T14:04:49;2.35;;;1.10;;
40983;SDS011;26714;51.332;12.406;2023-07-13T14:09:41;2.38;;;0.75;;
40983;SDS011;26714;51.332;12.406;2023-07-13T14:12:08;5.35;;;0.88;;
40983;SDS011;26714;51.332;12.406;2023-07-13T14:14:37;2.63;;;0.80;;
40983;SDS011;26714;51.332;12.406;2023-07-13T14:17:03;5.72;;;1.52;;
40983;SDS011;26714;51.332;12.406;2023-07-13T14:19:29;3.95;;;0.90;;
40983;SDS011;26714;51.332;12.406;2023-07-13T14:21:55;8.73;;;1.10;;
40983;SDS011;26714;51.332;12.406;2023-07-13T14:24:20;7.97;;;0.80;;
40983;SDS011;26714;51.332;12.406;2023-07-13T14:26:46;3.00;;;1.10;;
40983;SDS011;26714;51.332;12.406;2023-07-13T14:29:16;3.58;;;1.10;;
40983;SDS011;26714;51.332;12.406;2023-07-13T14:31:43;2.05;;;0.95;;
40983;SDS011;26714;51.332;12.406;2023-07-13T14:34:11;2.70;;;1.00;;
40983;SDS011;26714;51.332;12.406;2023-07-13T14:36:39;3.38;;;1.20;;
40983;SDS011;26714;51.332;12.406;2023-07-13T14:39:14;2.92;;;0.95;;
40983;SDS011;26714;51.332;12.406;2023-07-13T14:41:40;3.90;;;0.98;;
40983;SDS011;26714;51.332;12.406;2023-07-13T14:44:15;5.10;;;1.10;;
40983;SDS011;26714;51.332;12.406;2023-07-13T14:46:42;2.60;;;0.82;;
40983;SDS011;26714;51.332;12.406;2023-07-13T14:51:39;3.15;;;1.13;;
40983;SDS011;26714;51.332;12.406;2023-07-13T14:54:05;6.63;;;1.00;;
40983;SDS011;26714;51.332;12.406;2023-07-13T14:56:33;3.75;;;1.20;;
40983;SDS011;26714;51.332;12.406;2023-07-13T14:58:58;4.75;;;1.10;;
40983;SDS011;26714;51.332;12.406;2023-07-13T15:04:15;5.85;;;1.33;;
40983;SDS011;26714;51.332;12.406;2023-07-13T15:06:56;2.88;;;1.00;;
40983;SDS011;26714;51.332;12.406;2023-07-13T15:09:23;3.88;;;1.20;;
40983;SDS011;26714;51.332;12.406;2023-07-13T15:11:52;6.05;;;1.13;;
40983;SDS011;26714;51.332;12.406;2023-07-13T15:14:17;4.55;;;1.05;;
40983;SDS011;26714;51.332;12.406;2023-07-13T15:16:49;3.70;;;1.23;;
40983;SDS011;26714;51.332;12.406;2023-07-13T15:19:15;4.68;;;1.33;;